sensor_id;sensor_type;location;lat;lon;timestamp;P1;durP1;ratioP1;P2;durP2;ratioP2
35909;SDS011;22004;49.120;-0.200;2023-02-28T00:00:12;14.10;;;7.22;;
35909;SDS011;22004;49.120;-0.200;2023-02-28T00:02:42;14.52;;;7.53;;
35909;SDS011;22004;49.120;-0.200;2023-02-28T00:05:09;14.07;;;7.60;;
35909;SDS011;22004;49.120;-0.200;2023-02-28T00:07:38;14.00;;;7.13;;
35909;SDS011;22004;49.120;-0.200;2023-02-28T00:10:08;13.65;;;6.65;;
35909;SDS011;22004;49.120;-0.200;2023-02-28T00:12:35;15.18;;;7.13;;
35909;SDS011;22004;49.120;-0.200;2023-02-28T00:15:02;14.05;;;6.82;;
35909;SDS011;22004;49.120;-0.200;2023-02-28T00:17:29;13.52;;;6.88;;
35909;SDS011;22004;49.120;-0.200;2023-02-28T00:19:55;15.60;;;6.57;;
35909;SDS011;22004;49.120;-0.200;2023-02-28T00:22:21;12.27;;;6.18;;
35909;SDS011;22004;49.120;-0.200;2023-02-28T00:24:47;16.17;;;6.75;;
35909;SDS011;22004;49.120;-0.200;2023-02-28T00:27:13;14.80;;;6.32;;
35909;SDS011;22004;49.120;-0.200;2023-02-28T00:29:39;11.95;;;5.85;;
35909;SDS011;22004;49.120;-0.200;2023-02-28T00:32:04;13.55;;;5.95;;
35909;SDS011;22004;49.120;-0.200;2023-02-28T00:34:30;15.45;;;5.82;;
35909;SDS011;22004;49.120;-0.200;2023-02-28T00:36:56;13.13;;;5.95;;
35909;SDS011;22004;49.120;-0.200;2023-02-28T00:39:21;15.15;;;5.97;;
35909;SDS011;22004;49.120;-0.200;2023-02-28T00:41:47;12.80;;;5.72;;
35909;SDS011;22004;49.120;-0.200;2023-02-28T00:44:12;11.77;;;5.55;;
35909;SDS011;22004;49.120;-0.200;2023-02-28T00:46:37;9.32;;;5.07;;
35909;SDS011;22004;49.120;-0.200;2023-02-28T00:49:03;10.57;;;5.30;;
35909;SDS011;22004;49.120;-0.200;2023-02-28T00:51:28;15.52;;;5.45;;
35909;SDS011;22004;49.120;-0.200;2023-02-28T00:53:54;11.40;;;5.90;;
35909;SDS011;22004;49.120;-0.200;2023-02-28T00:56:19;14.55;;;5.05;;
35909;SDS011;22004;49.120;-0.200;2023-02-28T00:58:45;9.30;;;5.53;;
35909;SDS011;22004;49.120;-0.200;2023-02-28T01:01:10;10.52;;;5.22;;
35909;SDS011;22004;49.120;-0.200;2023-02-28T01:03:35;11.02;;;5.20;;
35909;SDS011;22004;49.120;-0.200;2023-02-28T01:06:01;8.52;;;4.53;;
35909;SDS011;22004;49.120;-0.200;2023-02-28T01:08:27;10.48;;;5.32;;
35909;SDS011;22004;49.120;-0.200;2023-02-28T01:10:52;9.38;;;5.10;;
35909;SDS011;22004;49.120;-0.200;2023-02-28T01:13:18;7.50;;;4.47;;
35909;SDS011;22004;49.120;-0.200;2023-02-28T01:15:54;8.43;;;4.80;;
35909;SDS011;22004;49.120;-0.200;2023-02-28T01:18:21;8.50;;;4.65;;
35909;SDS011;22004;49.120;-0.200;2023-02-28T01:20:47;7.68;;;4.70;;
35909;SDS011;22004;49.120;-0.200;2023-02-28T01:23:13;11.82;;;5.65;;
35909;SDS011;22004;49.120;-0.200;2023-02-28T01:25:38;8.80;;;4.93;;
35909;SDS011;22004;49.120;-0.200;2023-02-28T01:28:04;10.30;;;5.03;;
35909;SDS011;22004;49.120;-0.200;2023-02-28T01:30:30;9.38;;;5.03;;
35909;SDS011;22004;49.120;-0.200;2023-02-28T01:32:56;9.00;;;5.22;;
35909;SDS011;22004;49.120;-0.200;2023-02-28T01:35:21;8.68;;;4.55;;
35909;SDS011;22004;49.120;-0.200;2023-02-28T01:37:47;8.52;;;5.20;;
35909;SDS011;22004;49.120;-0.200;2023-02-28T01:40:12;7.75;;;4.50;;
35909;SDS011;22004;49.120;-0.200;2023-02-28T01:42:38;9.02;;;4.55;;
35909;SDS011;22004;49.120;-0.200;2023-02-28T01:45:23;7.15;;;4.53;;
35909;SDS011;22004;49.120;-0.200;2023-02-28T01:47:52;9.23;;;4.70;;
35909;SDS011;22004;49.120;-0.200;2023-02-28T01:50:22;8.60;;;4.72;;
35909;SDS011;22004;49.120;-0.200;2023-02-28T01:52:51;9.27;;;5.07;;
35909;SDS011;22004;49.120;-0.200;2023-02-28T01:55:20;10.07;;;4.82;;
35909;SDS011;22004;49.120;-0.200;2023-02-28T01:57:51;9.18;;;4.95;;
35909;SDS011;22004;49.120;-0.200;2023-02-28T02:00:20;9.13;;;4.72;;
35909;SDS011;22004;49.120;-0.200;2023-02-28T02:02:49;7.45;;;4.43;;
35909;SDS011;22004;49.120;-0.200;2023-02-28T02:05:19;10.32;;;5.03;;
35909;SDS011;22004;49.120;-0.200;2023-02-28T02:07:48;6.93;;;4.95;;
35909;SDS011;22004;49.120;-0.200;2023-02-28T02:10:20;10.85;;;5.13;;
35909;SDS011;22004;49.120;-0.200;2023-02-28T02:15:34;6.93;;;4.50;;
35909;SDS011;22004;49.120;-0.200;2023-02-28T02:18:16;6.97;;;4.25;;
35909;SDS011;22004;49.120;-0.200;2023-02-28T02:21:11;6.93;;;4.45;;
35909;SDS011;22004;49.120;-0.200;2023-02-28T02:36:52;9.55;;;4.78;;
35909;SDS011;22004;49.120;-0.200;2023-02-28T02:39:31;9.15;;;5.45;;
35909;SDS011;22004;49.120;-0.200;2023-02-28T02:42:01;10.88;;;5.95;;
35909;SDS011;22004;49.120;-0.200;2023-02-28T02:44:34;9.57;;;5.53;;
35909;SDS011;22004;49.120;-0.200;2023-02-28T02:47:06;11.20;;;6.00;;
35909;SDS011;22004;49.120;-0.200;2023-02-28T02:49:36;14.60;;;6.47;;
35909;SDS011;22004;49.120;-0.200;2023-02-28T02:52:06;15.20;;;6.57;;
35909;SDS011;22004;49.120;-0.200;2023-02-28T02:54:38;13.48;;;6.70;;
35909;SDS011;22004;49.120;-0.200;2023-02-28T02:57:11;13.63;;;6.55;;
35909;SDS011;22004;49.120;-0.200;2023-02-28T02:59:44;14.60;;;6.68;;
35909;SDS011;22004;49.120;-0.200;2023-02-28T03:02:12;14.40;;;6.75;;
35909;SDS011;22004;49.120;-0.200;2023-02-28T03:04:51;12.50;;;6.32;;
35909;SDS011;22004;49.120;-0.200;2023-02-28T03:07:19;11.65;;;6.25;;
35909;SDS011;22004;49.120;-0.200;2023-02-28T03:09:51;12.88;;;6.47;;
35909;SDS011;22004;49.120;-0.200;2023-02-28T03:12:17;11.32;;;6.10;;
35909;SDS011;22004;49.120;-0.200;2023-02-28T03:22:40;12.88;;;6.55;;
35909;SDS011;22004;49.120;-0.200;2023-02-28T03:25:09;11.88;;;6.00;;
35909;SDS011;22004;49.120;-0.200;2023-02-28T03:33:14;8.93;;;5.57;;
35909;SDS011;22004;49.120;-0.200;2023-02-28T03:35:45;12.32;;;6.30;;
35909;SDS011;22004;49.120;-0.200;2023-02-28T03:38:28;12.43;;;6.22;;
35909;SDS011;22004;49.120;-0.200;2023-02-28T03:41:05;9.68;;;6.65;;
35909;SDS011;22004;49.120;-0.200;2023-02-28T03:43:38;10.23;;;6.78;;
35909;SDS011;22004;49.120;-0.200;2023-02-28T03:46:09;11.50;;;6.97;;
35909;SDS011;22004;49.120;-0.200;2023-02-28T03:48:43;11.85;;;6.85;;
35909;SDS011;22004;49.120;-0.200;2023-02-28T03:51:12;13.43;;;7.53;;
35909;SDS011;22004;49.120;-0.200;2023-02-28T03:53:44;11.15;;;7.30;;
35909;SDS011;22004;49.120;-0.200;2023-02-28T03:56:22;13.90;;;7.43;;
35909;SDS011;22004;49.120;-0.200;2023-02-28T03:59:00;11.95;;;7.00;;
35909;SDS011;22004;49.120;-0.200;2023-02-28T04:01:36;12.70;;;7.25;;
35909;SDS011;22004;49.120;-0.200;2023-02-28T04:04:07;12.30;;;7.28;;
35909;SDS011;22004;49.120;-0.200;2023-02-28T04:06:35;9.77;;;6.63;;
35909;SDS011;22004;49.120;-0.200;2023-02-28T04:09:01;10.20;;;6.13;;
35909;SDS011;22004;49.120;-0.200;2023-02-28T04:14:16;10.82;;;6.32;;
35909;SDS011;22004;49.120;-0.200;2023-02-28T04:16:42;13.45;;;6.45;;
35909;SDS011;22004;49.120;-0.200;2023-02-28T04:19:09;10.77;;;6.47;;
35909;SDS011;22004;49.120;-0.200;2023-02-28T04:21:46;11.45;;;5.85;;
35909;SDS011;22004;49.120;-0.200;2023-02-28T04:24:14;13.43;;;5.80;;
35909;SDS011;22004;49.120;-0.200;2023-02-28T04:26:42;10.90;;;6.07;;
35909;SDS011;22004;49.120;-0.200;2023-02-28T04:29:10;10.15;;;6.25;;
35909;SDS011;22004;49.120;-0.200;2023-02-28T04:31:37;10.20;;;6.28;;
35909;SDS011;22004;49.120;-0.200;2023-02-28T04:34:02;11.23;;;6.53;;
35909;SDS011;22004;49.120;-0.200;2023-02-28T04:36:28;14.38;;;6.72;;
35909;SDS011;22004;49.120;-0.200;2023-02-28T04:38:54;12.38;;;6.70;;
35909;SDS011;22004;49.120;-0.200;2023-02-28T04:41:19;11.65;;;6.65;;
35909;SDS011;22004;49.120;-0.200;2023-02-28T04:43:45;16.17;;;7.60;;
35909;SDS011;22004;49.120;-0.200;2023-02-28T04:46:11;12.43;;;6.72;;
35909;SDS011;22004;49.120;-0.200;2023-02-28T04:48:37;12.40;;;7.18;;
35909;SDS011;22004;49.120;-0.200;2023-02-28T04:51:05;11.88;;;6.70;;
35909;SDS011;22004;49.120;-0.200;2023-02-28T04:53:33;10.00;;;6.38;;
35909;SDS011;22004;49.120;-0.200;2023-02-28T04:55:59;13.50;;;7.03;;
35909;SDS011;22004;49.120;-0.200;2023-02-28T04:58:24;12.15;;;6.70;;
35909;SDS011;22004;49.120;-0.200;2023-02-28T05:00:51;10.52;;;6.65;;
35909;SDS011;22004;49.120;-0.200;2023-02-28T05:03:17;10.45;;;6.72;;
35909;SDS011;22004;49.120;-0.200;2023-02-28T05:05:42;8.48;;;6.45;;
35909;SDS011;22004;49.120;-0.200;2023-02-28T05:08:08;11.73;;;6.45;;
35909;SDS011;22004;49.120;-0.200;2023-02-28T05:10:34;11.60;;;6.78;;
35909;SDS011;22004;49.120;-0.200;2023-02-28T05:12:59;15.65;;;6.95;;
35909;SDS011;22004;49.120;-0.200;2023-02-28T05:15:25;14.93;;;7.03;;
35909;SDS011;22004;49.120;-0.200;2023-02-28T05:17:50;17.17;;;7.28;;
35909;SDS011;22004;49.120;-0.200;2023-02-28T05:20:16;13.05;;;7.75;;
35909;SDS011;22004;49.120;-0.200;2023-02-28T05:22:42;12.05;;;7.35;;
35909;SDS011;22004;49.120;-0.200;2023-02-28T05:25:12;10.63;;;6.93;;
35909;SDS011;22004;49.120;-0.200;2023-02-28T05:27:40;10.15;;;7.25;;
35909;SDS011;22004;49.120;-0.200;2023-02-28T05:30:06;16.08;;;7.93;;
35909;SDS011;22004;49.120;-0.200;2023-02-28T05:32:35;12.93;;;8.20;;
35909;SDS011;22004;49.120;-0.200;2023-02-28T05:35:00;13.15;;;7.95;;
35909;SDS011;22004;49.120;-0.200;2023-02-28T05:37:26;13.70;;;7.40;;
35909;SDS011;22004;49.120;-0.200;2023-02-28T05:39:51;11.57;;;7.45;;
35909;SDS011;22004;49.120;-0.200;2023-02-28T05:42:17;14.68;;;8.00;;
35909;SDS011;22004;49.120;-0.200;2023-02-28T05:44:42;11.95;;;8.05;;
35909;SDS011;22004;49.120;-0.200;2023-02-28T05:47:07;17.30;;;9.80;;
35909;SDS011;22004;49.120;-0.200;2023-02-28T05:49:32;16.67;;;9.80;;
35909;SDS011;22004;49.120;-0.200;2023-02-28T05:51:58;17.67;;;10.07;;
35909;SDS011;22004;49.120;-0.200;2023-02-28T05:54:23;15.52;;;9.70;;
35909;SDS011;22004;49.120;-0.200;2023-02-28T05:56:48;17.20;;;10.50;;
35909;SDS011;22004;49.120;-0.200;2023-02-28T05:59:14;16.15;;;9.60;;
35909;SDS011;22004;49.120;-0.200;2023-02-28T06:01:43;16.98;;;9.43;;
35909;SDS011;22004;49.120;-0.200;2023-02-28T06:04:13;16.95;;;9.50;;
35909;SDS011;22004;49.120;-0.200;2023-02-28T06:06:43;13.77;;;8.98;;
35909;SDS011;22004;49.120;-0.200;2023-02-28T06:09:08;16.58;;;9.40;;
35909;SDS011;22004;49.120;-0.200;2023-02-28T06:11:34;17.10;;;10.02;;
35909;SDS011;22004;49.120;-0.200;2023-02-28T06:14:00;19.63;;;10.25;;
35909;SDS011;22004;49.120;-0.200;2023-02-28T06:16:26;19.30;;;10.55;;
35909;SDS011;22004;49.120;-0.200;2023-02-28T06:18:53;14.82;;;9.38;;
35909;SDS011;22004;49.120;-0.200;2023-02-28T06:21:21;18.20;;;9.70;;
35909;SDS011;22004;49.120;-0.200;2023-02-28T06:23:46;16.27;;;9.20;;
35909;SDS011;22004;49.120;-0.200;2023-02-28T06:26:12;14.43;;;9.25;;
35909;SDS011;22004;49.120;-0.200;2023-02-28T06:28:37;14.45;;;9.38;;
35909;SDS011;22004;49.120;-0.200;2023-02-28T06:31:06;15.15;;;9.82;;
35909;SDS011;22004;49.120;-0.200;2023-02-28T06:33:33;13.18;;;9.38;;
35909;SDS011;22004;49.120;-0.200;2023-02-28T06:35:58;14.88;;;9.60;;
35909;SDS011;22004;49.120;-0.200;2023-02-28T06:38:24;18.08;;;10.30;;
35909;SDS011;22004;49.120;-0.200;2023-02-28T06:40:52;17.00;;;9.18;;
35909;SDS011;22004;49.120;-0.200;2023-02-28T06:43:22;13.82;;;9.15;;
35909;SDS011;22004;49.120;-0.200;2023-02-28T06:45:48;16.13;;;9.20;;
35909;SDS011;22004;49.120;-0.200;2023-02-28T06:48:13;14.02;;;9.35;;
35909;SDS011;22004;49.120;-0.200;2023-02-28T06:50:39;13.73;;;9.27;;
35909;SDS011;22004;49.120;-0.200;2023-02-28T06:53:04;17.45;;;8.98;;
35909;SDS011;22004;49.120;-0.200;2023-02-28T06:55:30;14.90;;;9.85;;
35909;SDS011;22004;49.120;-0.200;2023-02-28T06:57:56;16.58;;;10.13;;
35909;SDS011;22004;49.120;-0.200;2023-02-28T07:00:22;18.75;;;11.38;;
35909;SDS011;22004;49.120;-0.200;2023-02-28T07:02:47;14.95;;;9.15;;
35909;SDS011;22004;49.120;-0.200;2023-02-28T07:05:13;14.55;;;9.73;;
35909;SDS011;22004;49.120;-0.200;2023-02-28T07:07:38;15.32;;;9.77;;
35909;SDS011;22004;49.120;-0.200;2023-02-28T07:10:08;13.45;;;9.35;;
35909;SDS011;22004;49.120;-0.200;2023-02-28T07:12:36;13.52;;;9.57;;
35909;SDS011;22004;49.120;-0.200;2023-02-28T07:15:02;15.63;;;9.90;;
35909;SDS011;22004;49.120;-0.200;2023-02-28T07:17:28;15.52;;;9.85;;
35909;SDS011;22004;49.120;-0.200;2023-02-28T07:19:53;14.38;;;9.43;;
35909;SDS011;22004;49.120;-0.200;2023-02-28T07:22:18;12.43;;;9.15;;
35909;SDS011;22004;49.120;-0.200;2023-02-28T07:24:44;13.35;;;10.00;;
35909;SDS011;22004;49.120;-0.200;2023-02-28T07:27:09;15.25;;;10.00;;
35909;SDS011;22004;49.120;-0.200;2023-02-28T07:29:34;13.85;;;9.82;;
35909;SDS011;22004;49.120;-0.200;2023-02-28T07:32:00;15.95;;;10.63;;
35909;SDS011;22004;49.120;-0.200;2023-02-28T07:34:25;14.50;;;10.35;;
35909;SDS011;22004;49.120;-0.200;2023-02-28T07:36:52;16.38;;;10.23;;
35909;SDS011;22004;49.120;-0.200;2023-02-28T07:39:19;14.77;;;9.95;;
35909;SDS011;22004;49.120;-0.200;2023-02-28T07:41:45;18.33;;;9.23;;
35909;SDS011;22004;49.120;-0.200;2023-02-28T07:44:11;13.55;;;9.77;;
35909;SDS011;22004;49.120;-0.200;2023-02-28T07:46:36;16.70;;;9.95;;
35909;SDS011;22004;49.120;-0.200;2023-02-28T07:49:02;14.45;;;10.05;;
35909;SDS011;22004;49.120;-0.200;2023-02-28T07:51:28;13.52;;;10.05;;
35909;SDS011;22004;49.120;-0.200;2023-02-28T07:53:54;16.65;;;10.43;;
35909;SDS011;22004;49.120;-0.200;2023-02-28T07:56:20;16.13;;;10.25;;
35909;SDS011;22004;49.120;-0.200;2023-02-28T07:58:46;14.52;;;10.43;;
35909;SDS011;22004;49.120;-0.200;2023-02-28T08:01:11;12.57;;;9.50;;
35909;SDS011;22004;49.120;-0.200;2023-02-28T08:03:38;14.57;;;9.68;;
35909;SDS011;22004;49.120;-0.200;2023-02-28T08:06:04;16.90;;;9.65;;
35909;SDS011;22004;49.120;-0.200;2023-02-28T08:08:31;16.52;;;10.18;;
35909;SDS011;22004;49.120;-0.200;2023-02-28T08:11:00;16.30;;;10.30;;
35909;SDS011;22004;49.120;-0.200;2023-02-28T08:13:27;17.88;;;10.30;;
35909;SDS011;22004;49.120;-0.200;2023-02-28T08:15:53;13.20;;;9.18;;
35909;SDS011;22004;49.120;-0.200;2023-02-28T08:18:19;14.15;;;10.40;;
35909;SDS011;22004;49.120;-0.200;2023-02-28T08:20:45;15.18;;;10.18;;
35909;SDS011;22004;49.120;-0.200;2023-02-28T08:23:11;12.93;;;9.45;;
35909;SDS011;22004;49.120;-0.200;2023-02-28T08:25:36;14.18;;;10.10;;
35909;SDS011;22004;49.120;-0.200;2023-02-28T08:28:01;14.65;;;10.35;;
35909;SDS011;22004;49.120;-0.200;2023-02-28T08:30:27;19.58;;;11.75;;
35909;SDS011;22004;49.120;-0.200;2023-02-28T08:32:52;14.85;;;9.88;;
35909;SDS011;22004;49.120;-0.200;2023-02-28T08:35:17;15.45;;;10.30;;
35909;SDS011;22004;49.120;-0.200;2023-02-28T08:37:43;16.85;;;10.23;;
35909;SDS011;22004;49.120;-0.200;2023-02-28T08:40:08;16.83;;;10.25;;
35909;SDS011;22004;49.120;-0.200;2023-02-28T08:42:34;14.55;;;10.02;;
35909;SDS011;22004;49.120;-0.200;2023-02-28T08:45:00;18.90;;;11.05;;
35909;SDS011;22004;49.120;-0.200;2023-02-28T08:47:25;13.20;;;9.55;;
35909;SDS011;22004;49.120;-0.200;2023-02-28T08:49:51;14.93;;;9.77;;
35909;SDS011;22004;49.120;-0.200;2023-02-28T08:52:16;15.40;;;10.25;;
35909;SDS011;22004;49.120;-0.200;2023-02-28T08:54:42;13.88;;;9.80;;
35909;SDS011;22004;49.120;-0.200;2023-02-28T08:57:07;13.45;;;9.82;;
35909;SDS011;22004;49.120;-0.200;2023-02-28T08:59:32;16.63;;;10.45;;
35909;SDS011;22004;49.120;-0.200;2023-02-28T09:01:58;14.63;;;9.75;;
35909;SDS011;22004;49.120;-0.200;2023-02-28T09:04:23;22.30;;;12.70;;
35909;SDS011;22004;49.120;-0.200;2023-02-28T09:06:49;15.02;;;10.35;;
35909;SDS011;22004;49.120;-0.200;2023-02-28T09:09:15;27.98;;;16.20;;
35909;SDS011;22004;49.120;-0.200;2023-02-28T09:11:41;21.70;;;13.98;;
35909;SDS011;22004;49.120;-0.200;2023-02-28T09:14:06;13.88;;;9.85;;
35909;SDS011;22004;49.120;-0.200;2023-02-28T09:16:32;19.73;;;12.52;;
35909;SDS011;22004;49.120;-0.200;2023-02-28T09:18:58;23.77;;;15.10;;
35909;SDS011;22004;49.120;-0.200;2023-02-28T09:21:23;22.48;;;13.25;;
35909;SDS011;22004;49.120;-0.200;2023-02-28T09:23:49;26.08;;;14.90;;
35909;SDS011;22004;49.120;-0.200;2023-02-28T09:26:16;19.45;;;11.82;;
35909;SDS011;22004;49.120;-0.200;2023-02-28T09:28:47;17.15;;;10.48;;
35909;SDS011;22004;49.120;-0.200;2023-02-28T09:31:13;15.10;;;10.30;;
35909;SDS011;22004;49.120;-0.200;2023-02-28T09:33:45;16.38;;;10.85;;
35909;SDS011;22004;49.120;-0.200;2023-02-28T09:36:11;16.50;;;9.98;;
35909;SDS011;22004;49.120;-0.200;2023-02-28T09:38:37;17.33;;;10.93;;
35909;SDS011;22004;49.120;-0.200;2023-02-28T09:41:03;14.70;;;10.55;;
35909;SDS011;22004;49.120;-0.200;2023-02-28T09:43:35;14.55;;;10.25;;
35909;SDS011;22004;49.120;-0.200;2023-02-28T09:46:08;16.23;;;9.88;;
35909;SDS011;22004;49.120;-0.200;2023-02-28T09:48:47;13.82;;;9.05;;
35909;SDS011;22004;49.120;-0.200;2023-02-28T09:51:21;13.60;;;9.68;;
35909;SDS011;22004;49.120;-0.200;2023-02-28T09:53:48;12.23;;;8.13;;
35909;SDS011;22004;49.120;-0.200;2023-02-28T09:56:21;15.15;;;8.98;;
35909;SDS011;22004;49.120;-0.200;2023-02-28T09:59:00;16.20;;;8.85;;
35909;SDS011;22004;49.120;-0.200;2023-02-28T10:04:27;13.75;;;7.82;;
35909;SDS011;22004;49.120;-0.200;2023-02-28T10:07:12;12.50;;;7.90;;
35909;SDS011;22004;49.120;-0.200;2023-02-28T10:10:01;12.05;;;7.28;;
35909;SDS011;22004;49.120;-0.200;2023-02-28T10:12:29;11.70;;;7.05;;
35909;SDS011;22004;49.120;-0.200;2023-02-28T10:14:56;11.80;;;7.32;;
35909;SDS011;22004;49.120;-0.200;2023-02-28T10:17:26;9.75;;;6.43;;
35909;SDS011;22004;49.120;-0.200;2023-02-28T10:20:17;10.80;;;6.75;;
35909;SDS011;22004;49.120;-0.200;2023-02-28T10:23:03;13.95;;;6.95;;
35909;SDS011;22004;49.120;-0.200;2023-02-28T10:25:47;12.02;;;6.22;;
35909;SDS011;22004;49.120;-0.200;2023-02-28T10:28:22;12.57;;;5.93;;
35909;SDS011;22004;49.120;-0.200;2023-02-28T10:30:51;10.25;;;6.00;;
35909;SDS011;22004;49.120;-0.200;2023-02-28T10:35:51;9.43;;;5.95;;
35909;SDS011;22004;49.120;-0.200;2023-02-28T10:38:21;9.05;;;5.22;;
35909;SDS011;22004;49.120;-0.200;2023-02-28T10:40:51;7.57;;;4.95;;
35909;SDS011;22004;49.120;-0.200;2023-02-28T10:43:28;11.35;;;5.13;;
35909;SDS011;22004;49.120;-0.200;2023-02-28T10:45:55;9.55;;;5.35;;
35909;SDS011;22004;49.120;-0.200;2023-02-28T10:48:44;13.93;;;5.30;;
35909;SDS011;22004;49.120;-0.200;2023-02-28T10:51:15;8.75;;;5.45;;
35909;SDS011;22004;49.120;-0.200;2023-02-28T11:01:40;10.05;;;5.32;;
35909;SDS011;22004;49.120;-0.200;2023-02-28T11:06:47;9.05;;;4.80;;
35909;SDS011;22004;49.120;-0.200;2023-02-28T11:09:24;13.70;;;6.07;;
35909;SDS011;22004;49.120;-0.200;2023-02-28T11:11:56;9.15;;;5.10;;
35909;SDS011;22004;49.120;-0.200;2023-02-28T11:14:24;12.38;;;4.85;;
35909;SDS011;22004;49.120;-0.200;2023-02-28T11:16:52;13.68;;;5.13;;
35909;SDS011;22004;49.120;-0.200;2023-02-28T11:19:23;7.82;;;4.70;;
35909;SDS011;22004;49.120;-0.200;2023-02-28T11:22:02;8.85;;;4.95;;
35909;SDS011;22004;49.120;-0.200;2023-02-28T11:24:35;7.75;;;4.88;;
35909;SDS011;22004;49.120;-0.200;2023-02-28T11:27:13;9.63;;;4.88;;
35909;SDS011;22004;49.120;-0.200;2023-02-28T11:29:50;11.27;;;5.82;;
35909;SDS011;22004;49.120;-0.200;2023-02-28T11:32:18;10.50;;;5.05;;
35909;SDS011;22004;49.120;-0.200;2023-02-28T11:34:46;7.00;;;4.60;;
35909;SDS011;22004;49.120;-0.200;2023-02-28T11:37:24;7.68;;;4.32;;
35909;SDS011;22004;49.120;-0.200;2023-02-28T11:39:52;9.57;;;5.10;;
35909;SDS011;22004;49.120;-0.200;2023-02-28T11:48:04;9.95;;;4.50;;
35909;SDS011;22004;49.120;-0.200;2023-02-28T11:50:45;8.55;;;5.03;;
35909;SDS011;22004;49.120;-0.200;2023-02-28T11:53:22;7.60;;;4.00;;
35909;SDS011;22004;49.120;-0.200;2023-02-28T11:55:58;10.57;;;4.95;;
35909;SDS011;22004;49.120;-0.200;2023-02-28T11:58:49;5.78;;;3.80;;
35909;SDS011;22004;49.120;-0.200;2023-02-28T12:06:52;8.05;;;4.20;;
35909;SDS011;22004;49.120;-0.200;2023-02-28T12:12:34;11.90;;;4.35;;
35909;SDS011;22004;49.120;-0.200;2023-02-28T12:26:42;9.65;;;5.32;;
35909;SDS011;22004;49.120;-0.200;2023-02-28T12:31:43;7.55;;;4.55;;
35909;SDS011;22004;49.120;-0.200;2023-02-28T12:34:25;12.43;;;6.22;;
35909;SDS011;22004;49.120;-0.200;2023-02-28T12:36:56;10.63;;;5.90;;
35909;SDS011;22004;49.120;-0.200;2023-02-28T12:39:26;6.00;;;4.60;;
35909;SDS011;22004;49.120;-0.200;2023-02-28T12:42:03;4.38;;;3.25;;
35909;SDS011;22004;49.120;-0.200;2023-02-28T12:44:35;9.30;;;5.60;;
35909;SDS011;22004;49.120;-0.200;2023-02-28T12:47:15;7.90;;;5.05;;
35909;SDS011;22004;49.120;-0.200;2023-02-28T12:58:05;11.05;;;5.85;;
35909;SDS011;22004;49.120;-0.200;2023-02-28T13:09:01;11.05;;;5.35;;
35909;SDS011;22004;49.120;-0.200;2023-02-28T13:11:48;9.20;;;5.28;;
35909;SDS011;22004;49.120;-0.200;2023-02-28T13:14:19;8.48;;;5.57;;
35909;SDS011;22004;49.120;-0.200;2023-02-28T13:16:54;9.90;;;5.18;;
35909;SDS011;22004;49.120;-0.200;2023-02-28T13:19:20;10.35;;;5.07;;
35909;SDS011;22004;49.120;-0.200;2023-02-28T13:21:48;9.48;;;5.53;;
35909;SDS011;22004;49.120;-0.200;2023-02-28T13:25:01;9.05;;;5.45;;
35909;SDS011;22004;49.120;-0.200;2023-02-28T13:34:36;7.50;;;4.88;;
35909;SDS011;22004;49.120;-0.200;2023-02-28T13:47:36;11.48;;;5.60;;
35909;SDS011;22004;49.120;-0.200;2023-02-28T13:55:42;9.32;;;6.18;;
35909;SDS011;22004;49.120;-0.200;2023-02-28T13:58:15;8.30;;;5.70;;
35909;SDS011;22004;49.120;-0.200;2023-02-28T14:01:31;11.95;;;5.80;;
35909;SDS011;22004;49.120;-0.200;2023-02-28T14:06:37;10.67;;;5.80;;
35909;SDS011;22004;49.120;-0.200;2023-02-28T14:11:38;11.40;;;6.00;;
35909;SDS011;22004;49.120;-0.200;2023-02-28T14:14:05;8.57;;;5.57;;
35909;SDS011;22004;49.120;-0.200;2023-02-28T14:21:34;8.32;;;5.68;;
35909;SDS011;22004;49.120;-0.200;2023-02-28T14:27:03;11.15;;;6.45;;
35909;SDS011;22004;49.120;-0.200;2023-02-28T14:32:37;11.52;;;5.65;;
35909;SDS011;22004;49.120;-0.200;2023-02-28T14:37:47;9.77;;;6.13;;
35909;SDS011;22004;49.120;-0.200;2023-02-28T14:43:02;11.30;;;7.60;;
35909;SDS011;22004;49.120;-0.200;2023-02-28T14:45:30;8.25;;;6.38;;
35909;SDS011;22004;49.120;-0.200;2023-02-28T14:48:02;13.20;;;7.10;;
35909;SDS011;22004;49.120;-0.200;2023-02-28T14:50:34;12.68;;;7.30;;
35909;SDS011;22004;49.120;-0.200;2023-02-28T14:53:01;12.38;;;7.55;;
35909;SDS011;22004;49.120;-0.200;2023-02-28T14:55:32;10.77;;;6.38;;
35909;SDS011;22004;49.120;-0.200;2023-02-28T14:58:04;13.30;;;7.18;;
35909;SDS011;22004;49.120;-0.200;2023-02-28T15:00:35;9.85;;;6.68;;
35909;SDS011;22004;49.120;-0.200;2023-02-28T15:03:17;10.38;;;6.05;;
35909;SDS011;22004;49.120;-0.200;2023-02-28T15:05:55;13.40;;;7.60;;
35909;SDS011;22004;49.120;-0.200;2023-02-28T15:08:23;9.82;;;6.40;;
35909;SDS011;22004;49.120;-0.200;2023-02-28T15:13:17;11.02;;;6.13;;
35909;SDS011;22004;49.120;-0.200;2023-02-28T15:15:48;9.55;;;6.78;;
35909;SDS011;22004;49.120;-0.200;2023-02-28T15:18:29;14.23;;;8.07;;
35909;SDS011;22004;49.120;-0.200;2023-02-28T15:20:59;8.18;;;5.95;;
35909;SDS011;22004;49.120;-0.200;2023-02-28T15:23:29;10.60;;;6.75;;
35909;SDS011;22004;49.120;-0.200;2023-02-28T15:25:55;9.07;;;6.70;;
35909;SDS011;22004;49.120;-0.200;2023-02-28T15:28:22;10.30;;;6.68;;
35909;SDS011;22004;49.120;-0.200;2023-02-28T15:30:59;13.88;;;9.13;;
35909;SDS011;22004;49.120;-0.200;2023-02-28T15:33:27;8.57;;;6.70;;
35909;SDS011;22004;49.120;-0.200;2023-02-28T15:36:06;10.32;;;7.20;;
35909;SDS011;22004;49.120;-0.200;2023-02-28T15:38:39;11.45;;;6.57;;
35909;SDS011;22004;49.120;-0.200;2023-02-28T15:41:04;10.52;;;6.75;;
35909;SDS011;22004;49.120;-0.200;2023-02-28T15:43:34;10.10;;;6.78;;
35909;SDS011;22004;49.120;-0.200;2023-02-28T15:46:11;8.82;;;6.35;;
35909;SDS011;22004;49.120;-0.200;2023-02-28T15:51:20;11.32;;;7.82;;
35909;SDS011;22004;49.120;-0.200;2023-02-28T15:56:31;10.32;;;7.10;;
35909;SDS011;22004;49.120;-0.200;2023-02-28T15:59:24;10.52;;;7.75;;
35909;SDS011;22004;49.120;-0.200;2023-02-28T16:04:36;11.40;;;7.03;;
35909;SDS011;22004;49.120;-0.200;2023-02-28T16:07:18;9.68;;;7.65;;
35909;SDS011;22004;49.120;-0.200;2023-02-28T16:09:44;10.65;;;8.18;;
35909;SDS011;22004;49.120;-0.200;2023-02-28T16:12:09;10.70;;;7.05;;
35909;SDS011;22004;49.120;-0.200;2023-02-28T16:14:38;11.63;;;8.10;;
35909;SDS011;22004;49.120;-0.200;2023-02-28T16:17:04;8.65;;;6.82;;
35909;SDS011;22004;49.120;-0.200;2023-02-28T16:19:33;10.52;;;6.78;;
35909;SDS011;22004;49.120;-0.200;2023-02-28T16:21:59;10.50;;;7.88;;
35909;SDS011;22004;49.120;-0.200;2023-02-28T16:24:24;10.93;;;7.70;;
35909;SDS011;22004;49.120;-0.200;2023-02-28T16:26:50;10.38;;;7.85;;
35909;SDS011;22004;49.120;-0.200;2023-02-28T16:29:39;8.82;;;7.07;;
35909;SDS011;22004;49.120;-0.200;2023-02-28T16:32:04;10.00;;;7.03;;
35909;SDS011;22004;49.120;-0.200;2023-02-28T16:34:30;10.68;;;7.47;;
35909;SDS011;22004;49.120;-0.200;2023-02-28T16:36:56;9.52;;;6.97;;
35909;SDS011;22004;49.120;-0.200;2023-02-28T16:39:22;11.60;;;7.03;;
35909;SDS011;22004;49.120;-0.200;2023-02-28T16:41:47;10.38;;;7.60;;
35909;SDS011;22004;49.120;-0.200;2023-02-28T16:44:28;9.95;;;7.43;;
35909;SDS011;22004;49.120;-0.200;2023-02-28T16:46:56;9.93;;;7.97;;
35909;SDS011;22004;49.120;-0.200;2023-02-28T16:49:22;11.25;;;7.72;;
35909;SDS011;22004;49.120;-0.200;2023-02-28T16:51:47;9.68;;;7.32;;
35909;SDS011;22004;49.120;-0.200;2023-02-28T16:54:13;8.77;;;7.35;;
35909;SDS011;22004;49.120;-0.200;2023-02-28T16:56:39;10.80;;;8.02;;
35909;SDS011;22004;49.120;-0.200;2023-02-28T16:59:08;10.90;;;7.90;;
35909;SDS011;22004;49.120;-0.200;2023-02-28T17:01:35;10.45;;;8.13;;
35909;SDS011;22004;49.120;-0.200;2023-02-28T17:04:01;10.25;;;7.55;;